sensor_id;sensor_type;location;lat;lon;timestamp;P1;durP1;ratioP1;P2;durP2;ratioP2
5569;SDS011;2808;51.240;6.794;2022-12-11T00:01:09;77.13;;;24.57;;
5569;SDS011;2808;51.240;6.794;2022-12-11T00:03:41;97.40;;;25.97;;
5569;SDS011;2808;51.240;6.794;2022-12-11T00:06:11;85.33;;;27.10;;
5569;SDS011;2808;51.240;6.794;2022-12-11T00:08:40;95.27;;;26.83;;
5569;SDS011;2808;51.240;6.794;2022-12-11T00:11:08;82.20;;;25.30;;
5569;SDS011;2808;51.240;6.794;2022-12-11T00:13:37;79.27;;;26.07;;
5569;SDS011;2808;51.240;6.794;2022-12-11T00:16:09;86.73;;;26.07;;
5569;SDS011;2808;51.240;6.794;2022-12-11T00:18:37;78.43;;;24.33;;
5569;SDS011;2808;51.240;6.794;2022-12-11T00:23:47;81.80;;;24.97;;
5569;SDS011;2808;51.240;6.794;2022-12-11T00:26:15;71.33;;;23.10;;
5569;SDS011;2808;51.240;6.794;2022-12-11T00:28:43;75.73;;;23.80;;
5569;SDS011;2808;51.240;6.794;2022-12-11T00:31:13;72.87;;;23.93;;
5569;SDS011;2808;51.240;6.794;2022-12-11T00:33:42;62.37;;;21.67;;
5569;SDS011;2808;51.240;6.794;2022-12-11T00:36:16;63.70;;;20.17;;
5569;SDS011;2808;51.240;6.794;2022-12-11T00:38:45;74.63;;;22.30;;
5569;SDS011;2808;51.240;6.794;2022-12-11T00:41:13;69.70;;;23.30;;
5569;SDS011;2808;51.240;6.794;2022-12-11T00:43:41;76.57;;;22.97;;
5569;SDS011;2808;51.240;6.794;2022-12-11T00:46:09;68.73;;;21.33;;
5569;SDS011;2808;51.240;6.794;2022-12-11T00:48:38;75.57;;;23.77;;
5569;SDS011;2808;51.240;6.794;2022-12-11T00:51:06;73.10;;;23.00;;
5569;SDS011;2808;51.240;6.794;2022-12-11T00:53:33;70.80;;;20.47;;
5569;SDS011;2808;51.240;6.794;2022-12-11T00:56:07;65.10;;;20.30;;
5569;SDS011;2808;51.240;6.794;2022-12-11T00:58:36;63.13;;;20.03;;
5569;SDS011;2808;51.240;6.794;2022-12-11T01:01:04;75.77;;;22.50;;
5569;SDS011;2808;51.240;6.794;2022-12-11T01:03:33;62.80;;;21.77;;
5569;SDS011;2808;51.240;6.794;2022-12-11T01:06:02;63.30;;;20.80;;
5569;SDS011;2808;51.240;6.794;2022-12-11T01:08:31;74.47;;;22.60;;
5569;SDS011;2808;51.240;6.794;2022-12-11T01:11:01;67.10;;;21.03;;
5569;SDS011;2808;51.240;6.794;2022-12-11T01:13:29;66.23;;;21.50;;
5569;SDS011;2808;51.240;6.794;2022-12-11T01:15:56;67.50;;;21.87;;
5569;SDS011;2808;51.240;6.794;2022-12-11T01:18:24;70.13;;;20.97;;
5569;SDS011;2808;51.240;6.794;2022-12-11T01:20:51;67.10;;;21.83;;
5569;SDS011;2808;51.240;6.794;2022-12-11T01:23:20;67.40;;;20.27;;
5569;SDS011;2808;51.240;6.794;2022-12-11T01:25:48;54.70;;;19.20;;
5569;SDS011;2808;51.240;6.794;2022-12-11T01:28:16;57.83;;;19.63;;
5569;SDS011;2808;51.240;6.794;2022-12-11T01:30:43;54.90;;;18.47;;
5569;SDS011;2808;51.240;6.794;2022-12-11T01:33:11;56.30;;;18.87;;
5569;SDS011;2808;51.240;6.794;2022-12-11T01:35:39;60.60;;;20.30;;
5569;SDS011;2808;51.240;6.794;2022-12-11T01:38:06;46.57;;;17.10;;
5569;SDS011;2808;51.240;6.794;2022-12-11T01:40:36;45.60;;;17.00;;
5569;SDS011;2808;51.240;6.794;2022-12-11T01:43:03;48.30;;;18.30;;
5569;SDS011;2808;51.240;6.794;2022-12-11T01:45:33;63.30;;;19.40;;
5569;SDS011;2808;51.240;6.794;2022-12-11T01:48:05;58.03;;;18.93;;
5569;SDS011;2808;51.240;6.794;2022-12-11T01:50:37;57.50;;;18.70;;
5569;SDS011;2808;51.240;6.794;2022-12-11T01:53:09;58.07;;;19.50;;
5569;SDS011;2808;51.240;6.794;2022-12-11T01:55:42;63.60;;;20.47;;
5569;SDS011;2808;51.240;6.794;2022-12-11T01:58:10;65.20;;;21.87;;
5569;SDS011;2808;51.240;6.794;2022-12-11T02:00:38;65.90;;;19.80;;
5569;SDS011;2808;51.240;6.794;2022-12-11T02:03:06;55.97;;;19.80;;
5569;SDS011;2808;51.240;6.794;2022-12-11T02:05:34;60.43;;;20.93;;
5569;SDS011;2808;51.240;6.794;2022-12-11T02:08:01;70.77;;;23.43;;
5569;SDS011;2808;51.240;6.794;2022-12-11T02:10:33;65.97;;;23.37;;
5569;SDS011;2808;51.240;6.794;2022-12-11T02:13:11;60.43;;;21.57;;
5569;SDS011;2808;51.240;6.794;2022-12-11T02:15:58;67.77;;;21.90;;
5569;SDS011;2808;51.240;6.794;2022-12-11T02:18:33;70.97;;;22.60;;
5569;SDS011;2808;51.240;6.794;2022-12-11T02:21:06;71.37;;;23.70;;
5569;SDS011;2808;51.240;6.794;2022-12-11T02:29:42;59.83;;;20.47;;
5569;SDS011;2808;51.240;6.794;2022-12-11T02:32:18;71.30;;;20.27;;
5569;SDS011;2808;51.240;6.794;2022-12-11T02:34:54;59.03;;;19.57;;
5569;SDS011;2808;51.240;6.794;2022-12-11T02:37:26;64.13;;;19.03;;
5569;SDS011;2808;51.240;6.794;2022-12-11T02:39:56;58.17;;;19.47;;
5569;SDS011;2808;51.240;6.794;2022-12-11T02:42:26;56.43;;;19.40;;
5569;SDS011;2808;51.240;6.794;2022-12-11T02:44:58;60.93;;;19.73;;
5569;SDS011;2808;51.240;6.794;2022-12-11T02:47:27;55.13;;;18.77;;
5569;SDS011;2808;51.240;6.794;2022-12-11T02:49:57;54.77;;;19.93;;
5569;SDS011;2808;51.240;6.794;2022-12-11T02:52:27;66.97;;;20.17;;
5569;SDS011;2808;51.240;6.794;2022-12-11T02:55:01;66.57;;;19.50;;
5569;SDS011;2808;51.240;6.794;2022-12-11T02:57:32;62.53;;;18.90;;
5569;SDS011;2808;51.240;6.794;2022-12-11T03:00:07;75.70;;;20.30;;
5569;SDS011;2808;51.240;6.794;2022-12-11T03:02:36;69.57;;;20.70;;
5569;SDS011;2808;51.240;6.794;2022-12-11T03:05:04;63.40;;;22.87;;
5569;SDS011;2808;51.240;6.794;2022-12-11T03:07:33;63.87;;;19.77;;
5569;SDS011;2808;51.240;6.794;2022-12-11T03:10:04;71.23;;;19.30;;
5569;SDS011;2808;51.240;6.794;2022-12-11T03:12:33;64.73;;;19.27;;
5569;SDS011;2808;51.240;6.794;2022-12-11T03:15:05;67.00;;;21.50;;
5569;SDS011;2808;51.240;6.794;2022-12-11T03:17:37;60.00;;;20.07;;
5569;SDS011;2808;51.240;6.794;2022-12-11T03:20:13;66.63;;;20.83;;
5569;SDS011;2808;51.240;6.794;2022-12-11T03:22:47;79.23;;;22.33;;
5569;SDS011;2808;51.240;6.794;2022-12-11T03:25:28;72.27;;;22.97;;
5569;SDS011;2808;51.240;6.794;2022-12-11T03:28:01;80.63;;;21.70;;
5569;SDS011;2808;51.240;6.794;2022-12-11T03:30:36;91.43;;;25.10;;
5569;SDS011;2808;51.240;6.794;2022-12-11T03:33:07;81.00;;;24.50;;
5569;SDS011;2808;51.240;6.794;2022-12-11T03:35:39;77.97;;;23.33;;
5569;SDS011;2808;51.240;6.794;2022-12-11T03:38:10;72.70;;;23.73;;
5569;SDS011;2808;51.240;6.794;2022-12-11T03:40:43;78.30;;;22.33;;
5569;SDS011;2808;51.240;6.794;2022-12-11T03:43:14;70.67;;;21.93;;
5569;SDS011;2808;51.240;6.794;2022-12-11T03:45:44;77.00;;;22.77;;
5569;SDS011;2808;51.240;6.794;2022-12-11T03:48:14;70.83;;;21.83;;
5569;SDS011;2808;51.240;6.794;2022-12-11T03:50:43;72.67;;;24.10;;
5569;SDS011;2808;51.240;6.794;2022-12-11T03:53:13;71.07;;;22.23;;
5569;SDS011;2808;51.240;6.794;2022-12-11T03:55:41;72.63;;;23.13;;
5569;SDS011;2808;51.240;6.794;2022-12-11T03:58:10;72.70;;;23.60;;
5569;SDS011;2808;51.240;6.794;2022-12-11T04:00:38;80.40;;;23.07;;
5569;SDS011;2808;51.240;6.794;2022-12-11T04:03:09;67.13;;;21.77;;
5569;SDS011;2808;51.240;6.794;2022-12-11T04:05:42;72.13;;;23.73;;
5569;SDS011;2808;51.240;6.794;2022-12-11T04:08:11;67.77;;;20.53;;
5569;SDS011;2808;51.240;6.794;2022-12-11T04:10:39;69.40;;;23.13;;
5569;SDS011;2808;51.240;6.794;2022-12-11T04:13:08;53.03;;;18.83;;
5569;SDS011;2808;51.240;6.794;2022-12-11T04:15:36;60.00;;;20.73;;
5569;SDS011;2808;51.240;6.794;2022-12-11T04:18:12;60.20;;;18.20;;
5569;SDS011;2808;51.240;6.794;2022-12-11T04:20:56;58.07;;;20.80;;
5569;SDS011;2808;51.240;6.794;2022-12-11T04:23:41;64.17;;;22.47;;
5569;SDS011;2808;51.240;6.794;2022-12-11T04:26:29;62.17;;;20.60;;
5569;SDS011;2808;51.240;6.794;2022-12-11T04:28:56;60.47;;;22.07;;
5569;SDS011;2808;51.240;6.794;2022-12-11T04:31:27;62.33;;;21.40;;
5569;SDS011;2808;51.240;6.794;2022-12-11T04:34:00;58.87;;;20.83;;
5569;SDS011;2808;51.240;6.794;2022-12-11T04:36:27;52.10;;;20.40;;
5569;SDS011;2808;51.240;6.794;2022-12-11T04:38:55;68.17;;;21.10;;
5569;SDS011;2808;51.240;6.794;2022-12-11T04:41:22;73.70;;;21.40;;
5569;SDS011;2808;51.240;6.794;2022-12-11T04:43:50;61.73;;;19.47;;
5569;SDS011;2808;51.240;6.794;2022-12-11T04:46:18;53.10;;;19.60;;
5569;SDS011;2808;51.240;6.794;2022-12-11T04:48:47;54.60;;;18.93;;
5569;SDS011;2808;51.240;6.794;2022-12-11T04:51:17;50.67;;;17.60;;
5569;SDS011;2808;51.240;6.794;2022-12-11T04:53:45;69.83;;;18.73;;
5569;SDS011;2808;51.240;6.794;2022-12-11T04:56:13;53.83;;;18.13;;
5569;SDS011;2808;51.240;6.794;2022-12-11T04:58:41;44.83;;;17.50;;
5569;SDS011;2808;51.240;6.794;2022-12-11T05:01:11;45.07;;;16.80;;
5569;SDS011;2808;51.240;6.794;2022-12-11T05:03:39;48.13;;;18.60;;
5569;SDS011;2808;51.240;6.794;2022-12-11T05:06:07;54.20;;;19.80;;
5569;SDS011;2808;51.240;6.794;2022-12-11T05:08:38;51.47;;;17.77;;
5569;SDS011;2808;51.240;6.794;2022-12-11T05:11:07;48.53;;;18.23;;
5569;SDS011;2808;51.240;6.794;2022-12-11T05:13:36;47.70;;;18.20;;
5569;SDS011;2808;51.240;6.794;2022-12-11T05:16:04;57.10;;;19.90;;
5569;SDS011;2808;51.240;6.794;2022-12-11T05:18:32;47.03;;;17.43;;
5569;SDS011;2808;51.240;6.794;2022-12-11T05:21:03;48.77;;;17.70;;
5569;SDS011;2808;51.240;6.794;2022-12-11T05:23:32;50.03;;;18.50;;
5569;SDS011;2808;51.240;6.794;2022-12-11T05:26:02;55.97;;;18.40;;
5569;SDS011;2808;51.240;6.794;2022-12-11T05:28:33;47.17;;;19.20;;
5569;SDS011;2808;51.240;6.794;2022-12-11T05:31:03;55.60;;;20.20;;
5569;SDS011;2808;51.240;6.794;2022-12-11T05:33:32;51.37;;;17.93;;
5569;SDS011;2808;51.240;6.794;2022-12-11T05:36:00;55.33;;;18.77;;
5569;SDS011;2808;51.240;6.794;2022-12-11T05:38:27;50.57;;;17.93;;
5569;SDS011;2808;51.240;6.794;2022-12-11T05:40:55;56.77;;;18.80;;
5569;SDS011;2808;51.240;6.794;2022-12-11T05:43:25;57.83;;;19.43;;
5569;SDS011;2808;51.240;6.794;2022-12-11T05:45:53;50.00;;;18.80;;
5569;SDS011;2808;51.240;6.794;2022-12-11T05:48:21;50.40;;;18.83;;
5569;SDS011;2808;51.240;6.794;2022-12-11T05:50:56;50.83;;;18.50;;
5569;SDS011;2808;51.240;6.794;2022-12-11T05:53:24;49.20;;;17.20;;
5569;SDS011;2808;51.240;6.794;2022-12-11T05:55:52;53.63;;;17.83;;
5569;SDS011;2808;51.240;6.794;2022-12-11T05:58:22;49.70;;;17.23;;
5569;SDS011;2808;51.240;6.794;2022-12-11T06:00:51;45.97;;;17.57;;
5569;SDS011;2808;51.240;6.794;2022-12-11T06:03:18;49.70;;;18.03;;
5569;SDS011;2808;51.240;6.794;2022-12-11T06:05:46;61.80;;;19.07;;
5569;SDS011;2808;51.240;6.794;2022-12-11T06:08:13;57.53;;;19.93;;
5569;SDS011;2808;51.240;6.794;2022-12-11T06:10:43;57.30;;;19.13;;
5569;SDS011;2808;51.240;6.794;2022-12-11T06:13:12;58.53;;;19.30;;
5569;SDS011;2808;51.240;6.794;2022-12-11T06:15:41;47.27;;;18.63;;
5569;SDS011;2808;51.240;6.794;2022-12-11T06:18:09;56.63;;;19.80;;
5569;SDS011;2808;51.240;6.794;2022-12-11T06:20:36;50.20;;;17.80;;
5569;SDS011;2808;51.240;6.794;2022-12-11T06:23:04;53.50;;;19.27;;
5569;SDS011;2808;51.240;6.794;2022-12-11T06:25:32;46.50;;;18.33;;
5569;SDS011;2808;51.240;6.794;2022-12-11T06:27:59;52.57;;;18.77;;
5569;SDS011;2808;51.240;6.794;2022-12-11T06:30:27;53.47;;;18.43;;
5569;SDS011;2808;51.240;6.794;2022-12-11T06:32:56;59.40;;;19.63;;
5569;SDS011;2808;51.240;6.794;2022-12-11T06:35:24;47.67;;;18.53;;
5569;SDS011;2808;51.240;6.794;2022-12-11T06:37:52;54.27;;;20.43;;
5569;SDS011;2808;51.240;6.794;2022-12-11T06:40:19;53.13;;;18.40;;
5569;SDS011;2808;51.240;6.794;2022-12-11T06:42:47;57.30;;;20.13;;
5569;SDS011;2808;51.240;6.794;2022-12-11T06:45:14;48.03;;;18.77;;
5569;SDS011;2808;51.240;6.794;2022-12-11T06:47:42;57.73;;;19.00;;
5569;SDS011;2808;51.240;6.794;2022-12-11T06:50:11;51.60;;;19.10;;
5569;SDS011;2808;51.240;6.794;2022-12-11T06:52:38;45.93;;;18.60;;
5569;SDS011;2808;51.240;6.794;2022-12-11T06:55:06;48.67;;;19.00;;
5569;SDS011;2808;51.240;6.794;2022-12-11T06:57:34;58.43;;;19.00;;
5569;SDS011;2808;51.240;6.794;2022-12-11T07:00:02;42.53;;;17.00;;
5569;SDS011;2808;51.240;6.794;2022-12-11T07:02:30;48.60;;;19.07;;
5569;SDS011;2808;51.240;6.794;2022-12-11T07:04:58;49.60;;;18.40;;
5569;SDS011;2808;51.240;6.794;2022-12-11T07:07:27;47.07;;;18.23;;
5569;SDS011;2808;51.240;6.794;2022-12-11T07:09:55;48.73;;;18.40;;
5569;SDS011;2808;51.240;6.794;2022-12-11T07:12:23;51.53;;;18.67;;
5569;SDS011;2808;51.240;6.794;2022-12-11T07:14:50;59.20;;;20.27;;
5569;SDS011;2808;51.240;6.794;2022-12-11T07:17:18;50.20;;;18.40;;
5569;SDS011;2808;51.240;6.794;2022-12-11T07:19:45;48.73;;;17.70;;
5569;SDS011;2808;51.240;6.794;2022-12-11T07:22:12;49.13;;;17.80;;
5569;SDS011;2808;51.240;6.794;2022-12-11T07:24:41;45.27;;;16.90;;
5569;SDS011;2808;51.240;6.794;2022-12-11T07:27:09;57.73;;;23.43;;
5569;SDS011;2808;51.240;6.794;2022-12-11T07:29:36;50.20;;;19.57;;
5569;SDS011;2808;51.240;6.794;2022-12-11T07:32:04;57.90;;;21.73;;
5569;SDS011;2808;51.240;6.794;2022-12-11T07:34:32;48.17;;;18.50;;
5569;SDS011;2808;51.240;6.794;2022-12-11T07:36:59;46.57;;;17.80;;
5569;SDS011;2808;51.240;6.794;2022-12-11T07:39:27;46.73;;;18.10;;
5569;SDS011;2808;51.240;6.794;2022-12-11T07:41:56;49.20;;;18.07;;
5569;SDS011;2808;51.240;6.794;2022-12-11T07:44:23;51.17;;;18.00;;
5569;SDS011;2808;51.240;6.794;2022-12-11T07:46:51;48.70;;;18.20;;
5569;SDS011;2808;51.240;6.794;2022-12-11T07:49:18;44.97;;;15.70;;
5569;SDS011;2808;51.240;6.794;2022-12-11T07:51:45;45.63;;;16.13;;
5569;SDS011;2808;51.240;6.794;2022-12-11T07:54:13;43.53;;;16.83;;
5569;SDS011;2808;51.240;6.794;2022-12-11T07:56:45;43.60;;;16.77;;
5569;SDS011;2808;51.240;6.794;2022-12-11T07:59:14;47.27;;;15.80;;
5569;SDS011;2808;51.240;6.794;2022-12-11T08:01:42;43.53;;;17.00;;
5569;SDS011;2808;51.240;6.794;2022-12-11T08:04:10;51.73;;;16.10;;
5569;SDS011;2808;51.240;6.794;2022-12-11T08:06:40;45.17;;;16.30;;
5569;SDS011;2808;51.240;6.794;2022-12-11T08:09:10;43.50;;;15.07;;
5569;SDS011;2808;51.240;6.794;2022-12-11T08:11:38;56.60;;;18.90;;
5569;SDS011;2808;51.240;6.794;2022-12-11T08:14:06;55.57;;;19.50;;
5569;SDS011;2808;51.240;6.794;2022-12-11T08:16:35;48.83;;;16.87;;
5569;SDS011;2808;51.240;6.794;2022-12-11T08:19:06;50.30;;;15.63;;
5569;SDS011;2808;51.240;6.794;2022-12-11T08:21:34;38.07;;;13.53;;
5569;SDS011;2808;51.240;6.794;2022-12-11T08:24:06;41.70;;;15.40;;
5569;SDS011;2808;51.240;6.794;2022-12-11T08:26:38;42.70;;;15.50;;
5569;SDS011;2808;51.240;6.794;2022-12-11T08:29:06;40.23;;;15.37;;
5569;SDS011;2808;51.240;6.794;2022-12-11T08:31:36;38.63;;;14.17;;
5569;SDS011;2808;51.240;6.794;2022-12-11T08:34:06;40.10;;;15.30;;
5569;SDS011;2808;51.240;6.794;2022-12-11T08:36:37;40.97;;;14.90;;
5569;SDS011;2808;51.240;6.794;2022-12-11T08:39:05;36.13;;;14.10;;
5569;SDS011;2808;51.240;6.794;2022-12-11T08:41:33;40.00;;;13.77;;
5569;SDS011;2808;51.240;6.794;2022-12-11T08:44:00;34.43;;;14.90;;
5569;SDS011;2808;51.240;6.794;2022-12-11T08:46:28;34.23;;;14.40;;
5569;SDS011;2808;51.240;6.794;2022-12-11T08:49:00;38.13;;;14.27;;
5569;SDS011;2808;51.240;6.794;2022-12-11T08:51:29;38.23;;;14.10;;
5569;SDS011;2808;51.240;6.794;2022-12-11T08:53:57;33.13;;;13.67;;
5569;SDS011;2808;51.240;6.794;2022-12-11T08:56:26;31.27;;;13.60;;
5569;SDS011;2808;51.240;6.794;2022-12-11T08:58:54;37.43;;;13.87;;
5569;SDS011;2808;51.240;6.794;2022-12-11T09:01:24;33.50;;;12.80;;
5569;SDS011;2808;51.240;6.794;2022-12-11T09:03:53;33.17;;;12.67;;
5569;SDS011;2808;51.240;6.794;2022-12-11T09:06:24;41.60;;;14.73;;
5569;SDS011;2808;51.240;6.794;2022-12-11T09:08:52;35.20;;;13.43;;
5569;SDS011;2808;51.240;6.794;2022-12-11T09:11:21;33.20;;;13.50;;
5569;SDS011;2808;51.240;6.794;2022-12-11T09:13:50;34.30;;;13.13;;
5569;SDS011;2808;51.240;6.794;2022-12-11T09:16:20;38.77;;;13.20;;
5569;SDS011;2808;51.240;6.794;2022-12-11T09:18:51;33.70;;;14.77;;
5569;SDS011;2808;51.240;6.794;2022-12-11T09:21:21;34.50;;;12.60;;
5569;SDS011;2808;51.240;6.794;2022-12-11T09:23:51;39.77;;;14.10;;
5569;SDS011;2808;51.240;6.794;2022-12-11T09:26:19;32.40;;;12.80;;
5569;SDS011;2808;51.240;6.794;2022-12-11T09:28:47;36.33;;;13.57;;
5569;SDS011;2808;51.240;6.794;2022-12-11T09:31:17;29.90;;;12.90;;
5569;SDS011;2808;51.240;6.794;2022-12-11T09:33:47;32.20;;;13.07;;
5569;SDS011;2808;51.240;6.794;2022-12-11T09:36:17;29.37;;;12.03;;
5569;SDS011;2808;51.240;6.794;2022-12-11T09:38:46;34.53;;;13.57;;
5569;SDS011;2808;51.240;6.794;2022-12-11T09:44:06;39.70;;;13.17;;
5569;SDS011;2808;51.240;6.794;2022-12-11T09:46:46;30.57;;;12.50;;
5569;SDS011;2808;51.240;6.794;2022-12-11T09:49:19;29.10;;;12.57;;
5569;SDS011;2808;51.240;6.794;2022-12-11T09:51:53;34.00;;;13.10;;
5569;SDS011;2808;51.240;6.794;2022-12-11T09:54:28;31.40;;;12.87;;
5569;SDS011;2808;51.240;6.794;2022-12-11T09:56:57;36.03;;;14.93;;
5569;SDS011;2808;51.240;6.794;2022-12-11T09:59:33;34.20;;;13.20;;
5569;SDS011;2808;51.240;6.794;2022-12-11T10:02:14;36.27;;;14.40;;
5569;SDS011;2808;51.240;6.794;2022-12-11T10:04:53;49.43;;;13.53;;
5569;SDS011;2808;51.240;6.794;2022-12-11T10:07:37;33.20;;;13.73;;
5569;SDS011;2808;51.240;6.794;2022-12-11T10:10:15;35.10;;;12.83;;
5569;SDS011;2808;51.240;6.794;2022-12-11T10:12:51;36.00;;;14.30;;
5569;SDS011;2808;51.240;6.794;2022-12-11T10:15:29;31.43;;;13.10;;
5569;SDS011;2808;51.240;6.794;2022-12-11T10:18:04;26.87;;;11.10;;
5569;SDS011;2808;51.240;6.794;2022-12-11T10:20:37;27.67;;;11.97;;
5569;SDS011;2808;51.240;6.794;2022-12-11T10:23:07;29.70;;;11.47;;
5569;SDS011;2808;51.240;6.794;2022-12-11T10:25:44;64.03;;;24.57;;
5569;SDS011;2808;51.240;6.794;2022-12-11T10:28:15;44.67;;;19.83;;
5569;SDS011;2808;51.240;6.794;2022-12-11T10:30:46;42.47;;;14.37;;
5569;SDS011;2808;51.240;6.794;2022-12-11T10:33:18;34.53;;;13.00;;
5569;SDS011;2808;51.240;6.794;2022-12-11T10:35:49;32.80;;;13.67;;
5569;SDS011;2808;51.240;6.794;2022-12-11T10:38:23;41.43;;;17.90;;
5569;SDS011;2808;51.240;6.794;2022-12-11T10:40:55;44.03;;;16.37;;
5569;SDS011;2808;51.240;6.794;2022-12-11T10:43:31;41.03;;;16.00;;
5569;SDS011;2808;51.240;6.794;2022-12-11T10:45:59;35.33;;;14.67;;
5569;SDS011;2808;51.240;6.794;2022-12-11T10:48:27;37.70;;;15.93;;
5569;SDS011;2808;51.240;6.794;2022-12-11T10:50:56;46.67;;;15.60;;
5569;SDS011;2808;51.240;6.794;2022-12-11T10:53:29;40.97;;;15.10;;
5569;SDS011;2808;51.240;6.794;2022-12-11T10:56:00;36.37;;;14.77;;
5569;SDS011;2808;51.240;6.794;2022-12-11T10:58:29;34.10;;;13.23;;
5569;SDS011;2808;51.240;6.794;2022-12-11T11:01:02;38.30;;;14.00;;
5569;SDS011;2808;51.240;6.794;2022-12-11T11:03:34;37.70;;;14.53;;
5569;SDS011;2808;51.240;6.794;2022-12-11T11:06:13;40.17;;;15.93;;
5569;SDS011;2808;51.240;6.794;2022-12-11T11:08:43;35.93;;;14.00;;
5569;SDS011;2808;51.240;6.794;2022-12-11T11:11:18;37.80;;;14.27;;
5569;SDS011;2808;51.240;6.794;2022-12-11T11:13:48;36.03;;;14.10;;
5569;SDS011;2808;51.240;6.794;2022-12-11T11:16:17;33.70;;;13.47;;
5569;SDS011;2808;51.240;6.794;2022-12-11T11:18:48;38.10;;;13.70;;
5569;SDS011;2808;51.240;6.794;2022-12-11T11:21:18;36.97;;;13.87;;
5569;SDS011;2808;51.240;6.794;2022-12-11T11:23:47;47.37;;;18.47;;
5569;SDS011;2808;51.240;6.794;2022-12-11T11:26:17;42.40;;;14.73;;
5569;SDS011;2808;51.240;6.794;2022-12-11T11:28:47;45.90;;;16.10;;
5569;SDS011;2808;51.240;6.794;2022-12-11T11:31:16;44.37;;;15.50;;
5569;SDS011;2808;51.240;6.794;2022-12-11T11:33:46;34.80;;;14.17;;
5569;SDS011;2808;51.240;6.794;2022-12-11T11:36:21;38.57;;;15.43;;
5569;SDS011;2808;51.240;6.794;2022-12-11T11:38:58;36.27;;;15.33;;
5569;SDS011;2808;51.240;6.794;2022-12-11T11:41:39;34.60;;;13.73;;
5569;SDS011;2808;51.240;6.794;2022-12-11T11:44:20;32.67;;;14.40;;
5569;SDS011;2808;51.240;6.794;2022-12-11T11:47:04;36.00;;;14.40;;
5569;SDS011;2808;51.240;6.794;2022-12-11T11:49:43;37.53;;;15.00;;
5569;SDS011;2808;51.240;6.794;2022-12-11T11:52:24;38.40;;;14.67;;
5569;SDS011;2808;51.240;6.794;2022-12-11T11:55:02;37.50;;;13.47;;
5569;SDS011;2808;51.240;6.794;2022-12-11T11:57:51;40.63;;;14.73;;
5569;SDS011;2808;51.240;6.794;2022-12-11T12:00:39;34.33;;;13.83;;
5569;SDS011;2808;51.240;6.794;2022-12-11T12:03:17;40.47;;;15.70;;
5569;SDS011;2808;51.240;6.794;2022-12-11T12:05:49;39.50;;;15.77;;
5569;SDS011;2808;51.240;6.794;2022-12-11T12:08:30;46.63;;;16.47;;
5569;SDS011;2808;51.240;6.794;2022-12-11T12:11:11;47.20;;;17.77;;
5569;SDS011;2808;51.240;6.794;2022-12-11T12:14:15;47.67;;;16.90;;
5569;SDS011;2808;51.240;6.794;2022-12-11T12:17:03;37.40;;;15.73;;
5569;SDS011;2808;51.240;6.794;2022-12-11T12:20:02;39.80;;;15.23;;
5569;SDS011;2808;51.240;6.794;2022-12-11T12:25:41;44.57;;;17.60;;
5569;SDS011;2808;51.240;6.794;2022-12-11T12:28:24;40.73;;;16.80;;
5569;SDS011;2808;51.240;6.794;2022-12-11T12:31:12;43.87;;;18.20;;
5569;SDS011;2808;51.240;6.794;2022-12-11T12:33:56;46.70;;;17.10;;
5569;SDS011;2808;51.240;6.794;2022-12-11T12:36:41;43.60;;;17.23;;
5569;SDS011;2808;51.240;6.794;2022-12-11T12:39:21;44.97;;;17.70;;
5569;SDS011;2808;51.240;6.794;2022-12-11T12:42:03;42.23;;;16.50;;
5569;SDS011;2808;51.240;6.794;2022-12-11T12:44:48;42.30;;;16.83;;
5569;SDS011;2808;51.240;6.794;2022-12-11T12:47:46;45.63;;;18.50;;
5569;SDS011;2808;51.240;6.794;2022-12-11T12:50:17;41.53;;;17.20;;
5569;SDS011;2808;51.240;6.794;2022-12-11T12:53:13;40.77;;;16.97;;
5569;SDS011;2808;51.240;6.794;2022-12-11T12:55:50;42.70;;;17.60;;
5569;SDS011;2808;51.240;6.794;2022-12-11T12:58:39;41.97;;;18.13;;
5569;SDS011;2808;51.240;6.794;2022-12-11T13:01:14;43.20;;;17.30;;
5569;SDS011;2808;51.240;6.794;2022-12-11T13:03:52;51.27;;;19.50;;
5569;SDS011;2808;51.240;6.794;2022-12-11T13:06:28;47.60;;;18.23;;
5569;SDS011;2808;51.240;6.794;2022-12-11T13:09:08;45.80;;;17.00;;
5569;SDS011;2808;51.240;6.794;2022-12-11T13:11:42;45.40;;;18.57;;
5569;SDS011;2808;51.240;6.794;2022-12-11T13:14:21;53.83;;;19.43;;
5569;SDS011;2808;51.240;6.794;2022-12-11T13:17:03;108.47;;;40.40;;
5569;SDS011;2808;51.240;6.794;2022-12-11T13:19:50;58.23;;;21.97;;
5569;SDS011;2808;51.240;6.794;2022-12-11T13:22:46;47.37;;;19.73;;
5569;SDS011;2808;51.240;6.794;2022-12-11T13:25:18;50.50;;;18.67;;
5569;SDS011;2808;51.240;6.794;2022-12-11T13:27:48;45.90;;;17.37;;
5569;SDS011;2808;51.240;6.794;2022-12-11T13:30:24;47.60;;;19.03;;
5569;SDS011;2808;51.240;6.794;2022-12-11T13:33:01;47.83;;;18.67;;
5569;SDS011;2808;51.240;6.794;2022-12-11T13:35:32;42.83;;;17.80;;
5569;SDS011;2808;51.240;6.794;2022-12-11T13:38:05;47.53;;;19.17;;
5569;SDS011;2808;51.240;6.794;2022-12-11T13:40:40;41.00;;;17.00;;
5569;SDS011;2808;51.240;6.794;2022-12-11T13:43:14;43.07;;;17.27;;
5569;SDS011;2808;51.240;6.794;2022-12-11T13:45:45;41.77;;;17.67;;
5569;SDS011;2808;51.240;6.794;2022-12-11T13:48:17;41.03;;;16.40;;
5569;SDS011;2808;51.240;6.794;2022-12-11T13:50:50;44.77;;;17.87;;
5569;SDS011;2808;51.240;6.794;2022-12-11T13:53:19;45.87;;;17.47;;
5569;SDS011;2808;51.240;6.794;2022-12-11T13:55:54;45.87;;;18.73;;
5569;SDS011;2808;51.240;6.794;2022-12-11T13:58:22;43.73;;;19.20;;
5569;SDS011;2808;51.240;6.794;2022-12-11T14:01:01;44.67;;;18.47;;
5569;SDS011;2808;51.240;6.794;2022-12-11T14:03:32;52.10;;;18.10;;
5569;SDS011;2808;51.240;6.794;2022-12-11T14:06:02;50.43;;;18.50;;
5569;SDS011;2808;51.240;6.794;2022-12-11T14:08:31;45.30;;;18.00;;
5569;SDS011;2808;51.240;6.794;2022-12-11T14:11:02;44.07;;;17.63;;
5569;SDS011;2808;51.240;6.794;2022-12-11T14:13:30;46.13;;;18.60;;
5569;SDS011;2808;51.240;6.794;2022-12-11T14:16:00;45.57;;;17.13;;
5569;SDS011;2808;51.240;6.794;2022-12-11T14:18:28;49.33;;;19.00;;
5569;SDS011;2808;51.240;6.794;2022-12-11T14:20:59;50.33;;;19.00;;
5569;SDS011;2808;51.240;6.794;2022-12-11T14:23:30;50.07;;;17.73;;
5569;SDS011;2808;51.240;6.794;2022-12-11T14:25:59;52.77;;;19.30;;
5569;SDS011;2808;51.240;6.794;2022-12-11T14:28:29;44.50;;;18.80;;
5569;SDS011;2808;51.240;6.794;2022-12-11T14:31:01;49.23;;;18.00;;
5569;SDS011;2808;51.240;6.794;2022-12-11T14:33:34;52.77;;;19.87;;
5569;SDS011;2808;51.240;6.794;2022-12-11T14:36:07;49.00;;;18.77;;
5569;SDS011;2808;51.240;6.794;2022-12-11T14:38:37;44.30;;;18.60;;
5569;SDS011;2808;51.240;6.794;2022-12-11T14:41:11;46.83;;;18.30;;
5569;SDS011;2808;51.240;6.794;2022-12-11T14:43:46;50.87;;;18.97;;
5569;SDS011;2808;51.240;6.794;2022-12-11T14:46:17;42.17;;;17.43;;
5569;SDS011;2808;51.240;6.794;2022-12-11T14:48:50;50.43;;;19.27;;
5569;SDS011;2808;51.240;6.794;2022-12-11T14:51:22;50.20;;;19.83;;
5569;SDS011;2808;51.240;6.794;2022-12-11T14:53:51;56.30;;;19.83;;
5569;SDS011;2808;51.240;6.794;2022-12-11T14:56:20;49.70;;;16.87;;
5569;SDS011;2808;51.240;6.794;2022-12-11T14:58:52;45.80;;;17.03;;
5569;SDS011;2808;51.240;6.794;2022-12-11T15:01:23;48.87;;;18.60;;
5569;SDS011;2808;51.240;6.794;2022-12-11T15:04:00;43.60;;;17.37;;
5569;SDS011;2808;51.240;6.794;2022-12-11T15:06:32;39.00;;;17.60;;
5569;SDS011;2808;51.240;6.794;2022-12-11T15:09:16;48.10;;;17.60;;
5569;SDS011;2808;51.240;6.794;2022-12-11T15:11:45;48.00;;;19.00;;
5569;SDS011;2808;51.240;6.794;2022-12-11T15:14:15;40.67;;;18.43;;
5569;SDS011;2808;51.240;6.794;2022-12-11T15:16:45;46.40;;;18.27;;
5569;SDS011;2808;51.240;6.794;2022-12-11T15:19:15;51.57;;;18.50;;
5569;SDS011;2808;51.240;6.794;2022-12-11T15:21:48;46.17;;;18.77;;
5569;SDS011;2808;51.240;6.794;2022-12-11T15:24:23;41.63;;;16.90;;
5569;SDS011;2808;51.240;6.794;2022-12-11T15:26:55;42.53;;;18.20;;
5569;SDS011;2808;51.240;6.794;2022-12-11T15:29:26;45.47;;;18.87;;